sensor_id;sensor_type;location;lat;lon;timestamp;temperature;humidity
11389;DHT22;5750;48.474;8.952;2022-10-16T00:01:55;15.40;99.90
11389;DHT22;5750;48.474;8.952;2022-10-16T00:04:22;15.40;99.90
11389;DHT22;5750;48.474;8.952;2022-10-16T00:06:48;15.30;99.90
11389;DHT22;5750;48.474;8.952;2022-10-16T00:09:15;15.30;99.90
11389;DHT22;5750;48.474;8.952;2022-10-16T00:11:43;15.30;99.90
11389;DHT22;5750;48.474;8.952;2022-10-16T00:14:10;15.20;99.90
11389;DHT22;5750;48.474;8.952;2022-10-16T00:16:37;15.20;99.90
11389;DHT22;5750;48.474;8.952;2022-10-16T00:19:04;15.20;99.90
11389;DHT22;5750;48.474;8.952;2022-10-16T00:21:31;15.00;99.90
11389;DHT22;5750;48.474;8.952;2022-10-16T00:23:58;15.00;99.90
11389;DHT22;5750;48.474;8.952;2022-10-16T00:26:25;14.90;99.90
11389;DHT22;5750;48.474;8.952;2022-10-16T00:28:53;14.90;99.90
11389;DHT22;5750;48.474;8.952;2022-10-16T00:31:21;14.90;99.90
11389;DHT22;5750;48.474;8.952;2022-10-16T00:33:48;14.80;99.90
11389;DHT22;5750;48.474;8.952;2022-10-16T00:36:15;14.80;99.90
11389;DHT22;5750;48.474;8.952;2022-10-16T00:38:42;14.80;99.90
11389;DHT22;5750;48.474;8.952;2022-10-16T00:41:09;14.50;99.90
11389;DHT22;5750;48.474;8.952;2022-10-16T00:43:38;14.70;99.90
11389;DHT22;5750;48.474;8.952;2022-10-16T00:46:09;14.70;99.90
11389;DHT22;5750;48.474;8.952;2022-10-16T00:48:36;14.70;99.90
11389;DHT22;5750;48.474;8.952;2022-10-16T00:51:03;14.60;99.90
11389;DHT22;5750;48.474;8.952;2022-10-16T00:53:30;14.60;99.90
11389;DHT22;5750;48.474;8.952;2022-10-16T00:55:57;14.60;99.90
11389;DHT22;5750;48.474;8.952;2022-10-16T00:58:23;14.60;99.90
11389;DHT22;5750;48.474;8.952;2022-10-16T01:00:50;14.60;99.90
11389;DHT22;5750;48.474;8.952;2022-10-16T01:03:25;14.60;99.90
11389;DHT22;5750;48.474;8.952;2022-10-16T01:05:54;14.60;99.90
11389;DHT22;5750;48.474;8.952;2022-10-16T01:08:27;14.60;99.90
11389;DHT22;5750;48.474;8.952;2022-10-16T01:10:58;14.60;99.90
11389;DHT22;5750;48.474;8.952;2022-10-16T01:13:27;14.50;99.90
11389;DHT22;5750;48.474;8.952;2022-10-16T01:15:54;14.50;99.90
11389;DHT22;5750;48.474;8.952;2022-10-16T01:18:27;14.40;99.90
11389;DHT22;5750;48.474;8.952;2022-10-16T01:20:57;14.40;99.90
11389;DHT22;5750;48.474;8.952;2022-10-16T01:23:27;14.40;99.90
11389;DHT22;5750;48.474;8.952;2022-10-16T01:25:59;14.40;99.90
11389;DHT22;5750;48.474;8.952;2022-10-16T01:28:34;14.50;99.90
11389;DHT22;5750;48.474;8.952;2022-10-16T01:31:02;14.50;99.90
11389;DHT22;5750;48.474;8.952;2022-10-16T01:33:30;14.50;99.90
11389;DHT22;5750;48.474;8.952;2022-10-16T01:36:02;14.50;99.90
11389;DHT22;5750;48.474;8.952;2022-10-16T01:38:29;14.50;99.90
11389;DHT22;5750;48.474;8.952;2022-10-16T01:40:58;14.50;99.90
11389;DHT22;5750;48.474;8.952;2022-10-16T01:43:26;14.50;99.90
11389;DHT22;5750;48.474;8.952;2022-10-16T01:45:56;14.50;99.90
11389;DHT22;5750;48.474;8.952;2022-10-16T01:48:23;14.40;99.90
11389;DHT22;5750;48.474;8.952;2022-10-16T01:50:52;14.50;99.90
11389;DHT22;5750;48.474;8.952;2022-10-16T01:53:19;14.50;99.90
11389;DHT22;5750;48.474;8.952;2022-10-16T01:55:46;14.50;99.90
11389;DHT22;5750;48.474;8.952;2022-10-16T01:58:14;14.50;99.90
11389;DHT22;5750;48.474;8.952;2022-10-16T02:00:42;14.50;99.90
11389;DHT22;5750;48.474;8.952;2022-10-16T02:03:11;14.50;99.90
11389;DHT22;5750;48.474;8.952;2022-10-16T02:05:39;14.60;99.90
11389;DHT22;5750;48.474;8.952;2022-10-16T02:08:07;14.60;99.90
11389;DHT22;5750;48.474;8.952;2022-10-16T02:10:34;14.60;99.90
11389;DHT22;5750;48.474;8.952;2022-10-16T02:13:02;14.60;99.90
11389;DHT22;5750;48.474;8.952;2022-10-16T02:15:30;14.60;99.90
11389;DHT22;5750;48.474;8.952;2022-10-16T02:17:56;14.60;99.90
11389;DHT22;5750;48.474;8.952;2022-10-16T02:20:26;14.60;99.90
11389;DHT22;5750;48.474;8.952;2022-10-16T02:22:54;14.70;99.90
11389;DHT22;5750;48.474;8.952;2022-10-16T02:25:22;14.70;99.90
11389;DHT22;5750;48.474;8.952;2022-10-16T02:27:51;14.70;99.90
11389;DHT22;5750;48.474;8.952;2022-10-16T02:30:20;14.70;99.90
11389;DHT22;5750;48.474;8.952;2022-10-16T02:32:49;14.60;99.90
11389;DHT22;5750;48.474;8.952;2022-10-16T02:35:17;14.60;99.90
11389;DHT22;5750;48.474;8.952;2022-10-16T02:37:45;14.60;99.90
11389;DHT22;5750;48.474;8.952;2022-10-16T02:40:12;14.60;99.90
11389;DHT22;5750;48.474;8.952;2022-10-16T02:42:40;14.60;99.90
11389;DHT22;5750;48.474;8.952;2022-10-16T02:45:07;14.60;99.90
11389;DHT22;5750;48.474;8.952;2022-10-16T02:47:34;14.60;99.90
11389;DHT22;5750;48.474;8.952;2022-10-16T02:50:01;14.60;99.90
11389;DHT22;5750;48.474;8.952;2022-10-16T02:52:27;14.60;99.90
11389;DHT22;5750;48.474;8.952;2022-10-16T02:54:55;14.60;99.90
11389;DHT22;5750;48.474;8.952;2022-10-16T02:57:22;14.60;99.90
11389;DHT22;5750;48.474;8.952;2022-10-16T02:59:48;14.60;99.90
11389;DHT22;5750;48.474;8.952;2022-10-16T03:02:15;14.60;99.90
11389;DHT22;5750;48.474;8.952;2022-10-16T03:04:41;14.60;99.90
11389;DHT22;5750;48.474;8.952;2022-10-16T03:07:08;14.60;99.90
11389;DHT22;5750;48.474;8.952;2022-10-16T03:09:35;14.60;99.90
11389;DHT22;5750;48.474;8.952;2022-10-16T03:12:03;14.60;99.90
11389;DHT22;5750;48.474;8.952;2022-10-16T03:14:29;14.60;99.90
11389;DHT22;5750;48.474;8.952;2022-10-16T03:16:56;14.60;99.90
11389;DHT22;5750;48.474;8.952;2022-10-16T03:19:22;14.60;99.90
11389;DHT22;5750;48.474;8.952;2022-10-16T03:21:49;14.50;99.90
11389;DHT22;5750;48.474;8.952;2022-10-16T03:24:15;14.50;99.90
11389;DHT22;5750;48.474;8.952;2022-10-16T03:26:42;14.50;99.90
11389;DHT22;5750;48.474;8.952;2022-10-16T03:29:10;14.50;99.90
11389;DHT22;5750;48.474;8.952;2022-10-16T03:31:36;14.40;99.90
11389;DHT22;5750;48.474;8.952;2022-10-16T03:34:03;14.40;99.90
11389;DHT22;5750;48.474;8.952;2022-10-16T03:36:30;14.40;99.90
11389;DHT22;5750;48.474;8.952;2022-10-16T03:38:56;14.40;99.90
11389;DHT22;5750;48.474;8.952;2022-10-16T03:41:23;14.40;99.90
11389;DHT22;5750;48.474;8.952;2022-10-16T03:43:49;14.40;99.90
11389;DHT22;5750;48.474;8.952;2022-10-16T03:46:17;14.40;99.90
11389;DHT22;5750;48.474;8.952;2022-10-16T03:48:44;14.40;99.90
11389;DHT22;5750;48.474;8.952;2022-10-16T03:51:10;14.40;99.90
11389;DHT22;5750;48.474;8.952;2022-10-16T03:53:37;14.40;99.90
11389;DHT22;5750;48.474;8.952;2022-10-16T03:56:03;14.40;99.90
11389;DHT22;5750;48.474;8.952;2022-10-16T03:58:30;14.40;99.90
11389;DHT22;5750;48.474;8.952;2022-10-16T04:00:57;14.30;99.90
11389;DHT22;5750;48.474;8.952;2022-10-16T04:03:24;14.30;99.90
11389;DHT22;5750;48.474;8.952;2022-10-16T04:05:51;14.30;99.90
11389;DHT22;5750;48.474;8.952;2022-10-16T04:08:18;14.30;99.90
11389;DHT22;5750;48.474;8.952;2022-10-16T04:10:44;14.30;99.90
11389;DHT22;5750;48.474;8.952;2022-10-16T04:13:11;14.30;99.90
11389;DHT22;5750;48.474;8.952;2022-10-16T04:15:38;14.30;99.90
11389;DHT22;5750;48.474;8.952;2022-10-16T04:18:05;14.30;99.90
11389;DHT22;5750;48.474;8.952;2022-10-16T04:20:33;14.20;99.90
11389;DHT22;5750;48.474;8.952;2022-10-16T04:22:59;14.20;99.90
11389;DHT22;5750;48.474;8.952;2022-10-16T04:25:26;14.20;99.90
11389;DHT22;5750;48.474;8.952;2022-10-16T04:27:52;14.20;99.90
11389;DHT22;5750;48.474;8.952;2022-10-16T04:30:19;14.20;99.90
11389;DHT22;5750;48.474;8.952;2022-10-16T04:32:47;14.20;99.90
11389;DHT22;5750;48.474;8.952;2022-10-16T04:35:14;14.20;99.90
11389;DHT22;5750;48.474;8.952;2022-10-16T04:37:42;14.20;99.90
11389;DHT22;5750;48.474;8.952;2022-10-16T04:40:08;14.20;99.90
11389;DHT22;5750;48.474;8.952;2022-10-16T04:42:35;14.20;99.90
11389;DHT22;5750;48.474;8.952;2022-10-16T04:45:02;14.20;99.90
11389;DHT22;5750;48.474;8.952;2022-10-16T04:47:28;14.20;99.90
11389;DHT22;5750;48.474;8.952;2022-10-16T04:49:55;14.30;99.90
11389;DHT22;5750;48.474;8.952;2022-10-16T04:52:22;14.20;99.90
11389;DHT22;5750;48.474;8.952;2022-10-16T04:54:51;14.20;99.90
11389;DHT22;5750;48.474;8.952;2022-10-16T04:57:19;14.10;99.90
11389;DHT22;5750;48.474;8.952;2022-10-16T04:59:45;14.00;99.90
11389;DHT22;5750;48.474;8.952;2022-10-16T05:02:12;13.90;99.90
11389;DHT22;5750;48.474;8.952;2022-10-16T05:04:38;13.90;99.90
11389;DHT22;5750;48.474;8.952;2022-10-16T05:07:05;13.90;99.90
11389;DHT22;5750;48.474;8.952;2022-10-16T05:09:31;13.90;99.90
11389;DHT22;5750;48.474;8.952;2022-10-16T05:11:59;13.90;99.90
11389;DHT22;5750;48.474;8.952;2022-10-16T05:14:26;14.00;99.90
11389;DHT22;5750;48.474;8.952;2022-10-16T05:16:52;13.90;99.90
11389;DHT22;5750;48.474;8.952;2022-10-16T05:19:19;13.90;99.90
11389;DHT22;5750;48.474;8.952;2022-10-16T05:21:46;13.90;99.90
11389;DHT22;5750;48.474;8.952;2022-10-16T05:24:12;13.90;99.90
11389;DHT22;5750;48.474;8.952;2022-10-16T05:26:39;13.90;99.90
11389;DHT22;5750;48.474;8.952;2022-10-16T05:29:07;13.90;99.90
11389;DHT22;5750;48.474;8.952;2022-10-16T05:31:33;13.90;99.90
11389;DHT22;5750;48.474;8.952;2022-10-16T05:34:00;13.90;99.90
11389;DHT22;5750;48.474;8.952;2022-10-16T05:36:27;13.80;99.90
11389;DHT22;5750;48.474;8.952;2022-10-16T05:38:54;13.80;99.90
11389;DHT22;5750;48.474;8.952;2022-10-16T05:41:20;13.80;99.90
11389;DHT22;5750;48.474;8.952;2022-10-16T05:43:48;13.70;99.90
11389;DHT22;5750;48.474;8.952;2022-10-16T05:46:16;13.60;99.90
11389;DHT22;5750;48.474;8.952;2022-10-16T05:48:43;13.50;99.90
11389;DHT22;5750;48.474;8.952;2022-10-16T05:51:10;13.40;99.90
11389;DHT22;5750;48.474;8.952;2022-10-16T05:53:38;13.40;99.90
11389;DHT22;5750;48.474;8.952;2022-10-16T05:56:05;13.40;99.90
11389;DHT22;5750;48.474;8.952;2022-10-16T05:58:32;13.50;99.90
11389;DHT22;5750;48.474;8.952;2022-10-16T06:01:01;13.50;99.90
11389;DHT22;5750;48.474;8.952;2022-10-16T06:03:29;13.60;99.90
11389;DHT22;5750;48.474;8.952;2022-10-16T06:05:55;13.60;99.90
11389;DHT22;5750;48.474;8.952;2022-10-16T06:08:22;13.70;99.90
11389;DHT22;5750;48.474;8.952;2022-10-16T06:10:49;13.70;99.90
11389;DHT22;5750;48.474;8.952;2022-10-16T06:13:15;13.80;99.90
11389;DHT22;5750;48.474;8.952;2022-10-16T06:15:42;13.80;99.90
11389;DHT22;5750;48.474;8.952;2022-10-16T06:18:09;13.80;99.90
11389;DHT22;5750;48.474;8.952;2022-10-16T06:20:37;13.80;99.90
11389;DHT22;5750;48.474;8.952;2022-10-16T06:23:03;13.90;99.90
11389;DHT22;5750;48.474;8.952;2022-10-16T06:25:30;13.90;99.90
11389;DHT22;5750;48.474;8.952;2022-10-16T06:27:57;14.00;99.90
11389;DHT22;5750;48.474;8.952;2022-10-16T06:30:23;14.10;99.90
11389;DHT22;5750;48.474;8.952;2022-10-16T06:32:50;14.10;99.90
11389;DHT22;5750;48.474;8.952;2022-10-16T06:35:16;14.20;99.90
11389;DHT22;5750;48.474;8.952;2022-10-16T06:37:44;14.20;99.90
11389;DHT22;5750;48.474;8.952;2022-10-16T06:40:11;14.20;99.90
11389;DHT22;5750;48.474;8.952;2022-10-16T06:42:39;14.20;99.90
11389;DHT22;5750;48.474;8.952;2022-10-16T06:45:06;14.20;99.90
11389;DHT22;5750;48.474;8.952;2022-10-16T06:47:33;14.20;99.90
11389;DHT22;5750;48.474;8.952;2022-10-16T06:50:00;14.20;99.90
11389;DHT22;5750;48.474;8.952;2022-10-16T06:52:28;14.20;99.90
11389;DHT22;5750;48.474;8.952;2022-10-16T06:54:56;14.30;99.90
11389;DHT22;5750;48.474;8.952;2022-10-16T06:57:22;14.40;99.90
11389;DHT22;5750;48.474;8.952;2022-10-16T06:59:49;14.40;99.90
11389;DHT22;5750;48.474;8.952;2022-10-16T07:02:15;14.50;99.90
11389;DHT22;5750;48.474;8.952;2022-10-16T07:04:42;14.60;99.90
11389;DHT22;5750;48.474;8.952;2022-10-16T07:07:08;14.70;99.90
11389;DHT22;5750;48.474;8.952;2022-10-16T07:09:35;14.80;99.90
11389;DHT22;5750;48.474;8.952;2022-10-16T07:12:03;14.90;99.90
11389;DHT22;5750;48.474;8.952;2022-10-16T07:14:30;14.90;99.90
11389;DHT22;5750;48.474;8.952;2022-10-16T07:16:56;15.00;99.90
11389;DHT22;5750;48.474;8.952;2022-10-16T07:19:23;15.00;99.90
11389;DHT22;5750;48.474;8.952;2022-10-16T07:21:50;15.10;99.90
11389;DHT22;5750;48.474;8.952;2022-10-16T07:24:17;15.10;99.90
11389;DHT22;5750;48.474;8.952;2022-10-16T07:26:44;15.20;99.90
11389;DHT22;5750;48.474;8.952;2022-10-16T07:29:13;15.30;99.90
11389;DHT22;5750;48.474;8.952;2022-10-16T07:31:40;15.40;99.90
11389;DHT22;5750;48.474;8.952;2022-10-16T07:34:07;15.40;99.90
11389;DHT22;5750;48.474;8.952;2022-10-16T07:36:33;15.40;99.90
11389;DHT22;5750;48.474;8.952;2022-10-16T07:39:00;15.40;99.90
11389;DHT22;5750;48.474;8.952;2022-10-16T07:41:27;15.50;99.90
11389;DHT22;5750;48.474;8.952;2022-10-16T07:43:54;15.50;99.90
11389;DHT22;5750;48.474;8.952;2022-10-16T07:46:23;15.60;99.90
11389;DHT22;5750;48.474;8.952;2022-10-16T07:48:49;15.70;99.90
11389;DHT22;5750;48.474;8.952;2022-10-16T07:51:16;15.80;99.90
11389;DHT22;5750;48.474;8.952;2022-10-16T07:53:44;16.00;99.90
11389;DHT22;5750;48.474;8.952;2022-10-16T07:56:10;16.10;99.90
11389;DHT22;5750;48.474;8.952;2022-10-16T07:58:37;16.20;99.90
11389;DHT22;5750;48.474;8.952;2022-10-16T08:01:04;16.30;99.90
11389;DHT22;5750;48.474;8.952;2022-10-16T08:03:33;16.30;99.90
11389;DHT22;5750;48.474;8.952;2022-10-16T08:06:00;16.40;99.90
11389;DHT22;5750;48.474;8.952;2022-10-16T08:08:27;16.40;99.90
11389;DHT22;5750;48.474;8.952;2022-10-16T08:10:53;16.50;99.90
11389;DHT22;5750;48.474;8.952;2022-10-16T08:13:20;16.50;99.90
11389;DHT22;5750;48.474;8.952;2022-10-16T08:15:47;16.60;99.90
11389;DHT22;5750;48.474;8.952;2022-10-16T08:18:14;16.60;99.90
11389;DHT22;5750;48.474;8.952;2022-10-16T08:20:42;16.70;99.90
11389;DHT22;5750;48.474;8.952;2022-10-16T08:23:09;15.70;99.90
11389;DHT22;5750;48.474;8.952;2022-10-16T08:25:36;16.80;99.90
11389;DHT22;5750;48.474;8.952;2022-10-16T08:28:03;16.90;99.90
11389;DHT22;5750;48.474;8.952;2022-10-16T08:30:30;17.00;99.90
11389;DHT22;5750;48.474;8.952;2022-10-16T08:32:56;17.10;99.90
11389;DHT22;5750;48.474;8.952;2022-10-16T08:35:24;17.10;99.90
11389;DHT22;5750;48.474;8.952;2022-10-16T08:37:52;17.10;99.90
11389;DHT22;5750;48.474;8.952;2022-10-16T08:40:18;17.20;99.90
11389;DHT22;5750;48.474;8.952;2022-10-16T08:42:49;17.20;99.90
11389;DHT22;5750;48.474;8.952;2022-10-16T08:45:34;17.20;99.90
11389;DHT22;5750;48.474;8.952;2022-10-16T08:48:08;17.30;99.90
11389;DHT22;5750;48.474;8.952;2022-10-16T08:50:38;17.30;99.90
11389;DHT22;5750;48.474;8.952;2022-10-16T08:53:06;17.30;99.90
11389;DHT22;5750;48.474;8.952;2022-10-16T08:55:34;18.70;99.90
11389;DHT22;5750;48.474;8.952;2022-10-16T08:58:07;17.50;99.90
11389;DHT22;5750;48.474;8.952;2022-10-16T09:00:37;17.50;99.90
11389;DHT22;5750;48.474;8.952;2022-10-16T09:03:05;17.60;99.90
11389;DHT22;5750;48.474;8.952;2022-10-16T09:08:28;17.80;99.90
11389;DHT22;5750;48.474;8.952;2022-10-16T09:10:59;18.10;99.90
11389;DHT22;5750;48.474;8.952;2022-10-16T09:13:32;18.30;99.90
11389;DHT22;5750;48.474;8.952;2022-10-16T09:16:01;18.60;99.90
11389;DHT22;5750;48.474;8.952;2022-10-16T09:18:37;18.70;99.90
11389;DHT22;5750;48.474;8.952;2022-10-16T09:21:09;18.90;99.90
11389;DHT22;5750;48.474;8.952;2022-10-16T09:23:37;19.10;99.90
11389;DHT22;5750;48.474;8.952;2022-10-16T09:26:04;19.20;99.90
11389;DHT22;5750;48.474;8.952;2022-10-16T09:28:32;19.40;99.90
11389;DHT22;5750;48.474;8.952;2022-10-16T09:30:58;19.50;99.90
11389;DHT22;5750;48.474;8.952;2022-10-16T09:33:25;19.60;99.90
11389;DHT22;5750;48.474;8.952;2022-10-16T09:35:55;20.00;99.90
11389;DHT22;5750;48.474;8.952;2022-10-16T09:38:25;20.30;99.90
11389;DHT22;5750;48.474;8.952;2022-10-16T09:40:54;20.60;99.90
11389;DHT22;5750;48.474;8.952;2022-10-16T09:43:22;20.70;99.90
11389;DHT22;5750;48.474;8.952;2022-10-16T09:45:57;20.70;99.90
11389;DHT22;5750;48.474;8.952;2022-10-16T09:48:25;20.60;99.90
11389;DHT22;5750;48.474;8.952;2022-10-16T09:50:55;20.50;99.90
11389;DHT22;5750;48.474;8.952;2022-10-16T09:53:22;20.40;99.90
11389;DHT22;5750;48.474;8.952;2022-10-16T09:55:49;20.40;99.90
11389;DHT22;5750;48.474;8.952;2022-10-16T09:58:17;20.40;99.90
11389;DHT22;5750;48.474;8.952;2022-10-16T10:00:48;20.20;99.90
11389;DHT22;5750;48.474;8.952;2022-10-16T10:03:17;20.20;99.90
11389;DHT22;5750;48.474;8.952;2022-10-16T10:05:49;20.20;99.90
11389;DHT22;5750;48.474;8.952;2022-10-16T10:08:16;20.20;99.90
11389;DHT22;5750;48.474;8.952;2022-10-16T10:10:44;20.30;99.90
11389;DHT22;5750;48.474;8.952;2022-10-16T10:13:18;20.40;99.90
11389;DHT22;5750;48.474;8.952;2022-10-16T10:15:45;20.70;99.90
11389;DHT22;5750;48.474;8.952;2022-10-16T10:18:15;21.10;99.90
11389;DHT22;5750;48.474;8.952;2022-10-16T10:20:43;21.50;99.90
11389;DHT22;5750;48.474;8.952;2022-10-16T10:23:19;21.90;99.90
11389;DHT22;5750;48.474;8.952;2022-10-16T10:25:49;22.30;99.90
11389;DHT22;5750;48.474;8.952;2022-10-16T10:28:27;22.60;99.90
11389;DHT22;5750;48.474;8.952;2022-10-16T10:30:56;22.90;99.90
11389;DHT22;5750;48.474;8.952;2022-10-16T10:33:28;23.00;99.90
11389;DHT22;5750;48.474;8.952;2022-10-16T10:35:57;23.00;99.90
11389;DHT22;5750;48.474;8.952;2022-10-16T10:38:35;23.00;99.90
11389;DHT22;5750;48.474;8.952;2022-10-16T10:41:07;23.10;99.90
11389;DHT22;5750;48.474;8.952;2022-10-16T10:43:42;23.10;99.90
11389;DHT22;5750;48.474;8.952;2022-10-16T10:46:14;23.10;99.90
11389;DHT22;5750;48.474;8.952;2022-10-16T10:48:48;23.10;99.90
11389;DHT22;5750;48.474;8.952;2022-10-16T10:51:17;23.10;99.90
11389;DHT22;5750;48.474;8.952;2022-10-16T10:53:47;23.10;99.90
11389;DHT22;5750;48.474;8.952;2022-10-16T10:56:18;23.20;99.90
11389;DHT22;5750;48.474;8.952;2022-10-16T10:58:53;23.30;99.90
11389;DHT22;5750;48.474;8.952;2022-10-16T11:01:25;23.30;99.90
11389;DHT22;5750;48.474;8.952;2022-10-16T11:04:03;23.50;99.90
11389;DHT22;5750;48.474;8.952;2022-10-16T11:06:35;23.50;99.90
11389;DHT22;5750;48.474;8.952;2022-10-16T11:09:04;23.70;99.90
11389;DHT22;5750;48.474;8.952;2022-10-16T11:11:36;23.70;99.90
11389;DHT22;5750;48.474;8.952;2022-10-16T11:14:06;23.70;99.90
11389;DHT22;5750;48.474;8.952;2022-10-16T11:16:37;23.80;99.90
11389;DHT22;5750;48.474;8.952;2022-10-16T11:19:10;23.80;99.90
11389;DHT22;5750;48.474;8.952;2022-10-16T11:21:39;23.80;99.90
11389;DHT22;5750;48.474;8.952;2022-10-16T11:24:09;24.00;99.90
11389;DHT22;5750;48.474;8.952;2022-10-16T11:26:41;24.10;99.90
11389;DHT22;5750;48.474;8.952;2022-10-16T11:29:12;24.10;99.90
11389;DHT22;5750;48.474;8.952;2022-10-16T11:31:40;24.10;99.90
11389;DHT22;5750;48.474;8.952;2022-10-16T11:34:09;24.10;99.90
11389;DHT22;5750;48.474;8.952;2022-10-16T11:36:42;24.00;99.90
11389;DHT22;5750;48.474;8.952;2022-10-16T11:39:14;24.10;99.90
11389;DHT22;5750;48.474;8.952;2022-10-16T11:41:44;24.00;99.90
11389;DHT22;5750;48.474;8.952;2022-10-16T11:44:18;24.00;99.90
11389;DHT22;5750;48.474;8.952;2022-10-16T11:46:48;24.00;99.90
11389;DHT22;5750;48.474;8.952;2022-10-16T11:49:18;24.00;99.90
11389;DHT22;5750;48.474;8.952;2022-10-16T11:51:48;23.90;99.90
11389;DHT22;5750;48.474;8.952;2022-10-16T11:54:17;24.00;99.90
11389;DHT22;5750;48.474;8.952;2022-10-16T11:56:47;24.00;99.90
11389;DHT22;5750;48.474;8.952;2022-10-16T11:59:16;24.00;99.90
11389;DHT22;5750;48.474;8.952;2022-10-16T12:01:48;24.00;99.90
11389;DHT22;5750;48.474;8.952;2022-10-16T12:04:20;24.20;99.90
11389;DHT22;5750;48.474;8.952;2022-10-16T12:06:49;24.30;99.90
11389;DHT22;5750;48.474;8.952;2022-10-16T12:09:20;24.40;99.90
11389;DHT22;5750;48.474;8.952;2022-10-16T12:11:48;24.50;99.90
11389;DHT22;5750;48.474;8.952;2022-10-16T12:14:19;24.40;99.90
11389;DHT22;5750;48.474;8.952;2022-10-16T12:16:54;24.40;99.90
11389;DHT22;5750;48.474;8.952;2022-10-16T12:19:21;24.40;99.90
11389;DHT22;5750;48.474;8.952;2022-10-16T12:21:48;24.40;99.90
11389;DHT22;5750;48.474;8.952;2022-10-16T12:24:27;24.40;99.90
11389;DHT22;5750;48.474;8.952;2022-10-16T12:26:56;24.40;99.90
11389;DHT22;5750;48.474;8.952;2022-10-16T12:29:23;24.50;99.90
11389;DHT22;5750;48.474;8.952;2022-10-16T12:31:55;24.50;99.90
11389;DHT22;5750;48.474;8.952;2022-10-16T12:34:23;24.50;99.90
11389;DHT22;5750;48.474;8.952;2022-10-16T12:36:52;24.60;99.90
11389;DHT22;5750;48.474;8.952;2022-10-16T12:39:20;24.60;99.90
11389;DHT22;5750;48.474;8.952;2022-10-16T12:41:47;24.50;99.90
11389;DHT22;5750;48.474;8.952;2022-10-16T12:44:20;24.50;99.90
11389;DHT22;5750;48.474;8.952;2022-10-16T12:46:48;24.40;99.90
11389;DHT22;5750;48.474;8.952;2022-10-16T12:49:30;24.40;99.90
11389;DHT22;5750;48.474;8.952;2022-10-16T12:51:57;24.40;99.90
11389;DHT22;5750;48.474;8.952;2022-10-16T12:54:25;24.20;99.90
11389;DHT22;5750;48.474;8.952;2022-10-16T12:56:58;24.30;99.90
11389;DHT22;5750;48.474;8.952;2022-10-16T12:59:31;24.10;99.90
11389;DHT22;5750;48.474;8.952;2022-10-16T13:02:08;24.20;99.90
11389;DHT22;5750;48.474;8.952;2022-10-16T13:04:43;24.20;99.90
11389;DHT22;5750;48.474;8.952;2022-10-16T13:07:31;24.40;99.90
11389;DHT22;5750;48.474;8.952;2022-10-16T13:10:02;24.40;99.90
11389;DHT22;5750;48.474;8.952;2022-10-16T13:15:17;24.40;99.90
11389;DHT22;5750;48.474;8.952;2022-10-16T13:17:48;24.40;99.90
11389;DHT22;5750;48.474;8.952;2022-10-16T13:20:21;24.30;99.90
11389;DHT22;5750;48.474;8.952;2022-10-16T13:22:51;24.30;99.90
11389;DHT22;5750;48.474;8.952;2022-10-16T13:25:24;24.40;99.90
11389;DHT22;5750;48.474;8.952;2022-10-16T13:27:54;24.40;99.90
11389;DHT22;5750;48.474;8.952;2022-10-16T13:30:21;24.40;99.90
11389;DHT22;5750;48.474;8.952;2022-10-16T13:32:50;24.40;99.90
11389;DHT22;5750;48.474;8.952;2022-10-16T13:35:25;24.30;99.90
11389;DHT22;5750;48.474;8.952;2022-10-16T13:38:02;24.30;99.90
11389;DHT22;5750;48.474;8.952;2022-10-16T13:40:29;24.20;99.90
11389;DHT22;5750;48.474;8.952;2022-10-16T13:42:55;24.20;99.90
11389;DHT22;5750;48.474;8.952;2022-10-16T13:45:22;24.20;99.90
11389;DHT22;5750;48.474;8.952;2022-10-16T13:48:00;24.10;99.90
11389;DHT22;5750;48.474;8.952;2022-10-16T13:50:28;24.00;99.90
11389;DHT22;5750;48.474;8.952;2022-10-16T13:53:02;24.00;99.90
11389;DHT22;5750;48.474;8.952;2022-10-16T13:55:29;24.10;99.90
11389;DHT22;5750;48.474;8.952;2022-10-16T13:58:04;24.10;99.90
11389;DHT22;5750;48.474;8.952;2022-10-16T14:00:30;24.20;99.90
11389;DHT22;5750;48.474;8.952;2022-10-16T14:02:58;24.20;99.90
11389;DHT22;5750;48.474;8.952;2022-10-16T14:05:28;24.20;99.90
11389;DHT22;5750;48.474;8.952;2022-10-16T14:07:55;24.20;99.90
11389;DHT22;5750;48.474;8.952;2022-10-16T14:10:23;24.20;99.90
11389;DHT22;5750;48.474;8.952;2022-10-16T14:12:55;24.20;99.90
11389;DHT22;5750;48.474;8.952;2022-10-16T14:15:22;24.20;99.90
11389;DHT22;5750;48.474;8.952;2022-10-16T14:17:49;24.20;99.90
11389;DHT22;5750;48.474;8.952;2022-10-16T14:20:17;24.20;99.90
11389;DHT22;5750;48.474;8.952;2022-10-16T14:22:45;24.20;99.90
11389;DHT22;5750;48.474;8.952;2022-10-16T14:25:20;24.10;99.90
11389;DHT22;5750;48.474;8.952;2022-10-16T14:27:58;24.00;99.90
11389;DHT22;5750;48.474;8.952;2022-10-16T14:30:26;24.00;99.90
11389;DHT22;5750;48.474;8.952;2022-10-16T14:32:54;25.50;99.90
11389;DHT22;5750;48.474;8.952;2022-10-16T14:35:21;24.10;99.90
11389;DHT22;5750;48.474;8.952;2022-10-16T14:37:52;24.20;99.90
11389;DHT22;5750;48.474;8.952;2022-10-16T14:40:19;24.20;99.90
11389;DHT22;5750;48.474;8.952;2022-10-16T14:42:47;24.20;99.90
11389;DHT22;5750;48.474;8.952;2022-10-16T14:45:15;24.20;99.90
11389;DHT22;5750;48.474;8.952;2022-10-16T14:47:47;24.20;99.90
11389;DHT22;5750;48.474;8.952;2022-10-16T14:50:14;24.20;99.90
11389;DHT22;5750;48.474;8.952;2022-10-16T14:52:40;24.20;99.90
11389;DHT22;5750;48.474;8.952;2022-10-16T14:55:10;24.10;99.90
11389;DHT22;5750;48.474;8.952;2022-10-16T14:57:37;24.10;99.90
11389;DHT22;5750;48.474;8.952;2022-10-16T15:00:08;23.90;99.90
11389;DHT22;5750;48.474;8.952;2022-10-16T15:02:36;23.90;99.90
11389;DHT22;5750;48.474;8.952;2022-10-16T15:05:07;23.80;99.90
11389;DHT22;5750;48.474;8.952;2022-10-16T15:07:36;23.80;99.90
11389;DHT22;5750;48.474;8.952;2022-10-16T15:10:03;23.60;99.90
11389;DHT22;5750;48.474;8.952;2022-10-16T15:12:31;23.50;99.90
11389;DHT22;5750;48.474;8.952;2022-10-16T15:14:58;23.50;99.90
11389;DHT22;5750;48.474;8.952;2022-10-16T15:17:24;23.40;99.90
11389;DHT22;5750;48.474;8.952;2022-10-16T15:19:51;23.30;99.90
11389;DHT22;5750;48.474;8.952;2022-10-16T15:22:17;23.30;99.90
11389;DHT22;5750;48.474;8.952;2022-10-16T15:24:44;23.10;99.90
11389;DHT22;5750;48.474;8.952;2022-10-16T15:27:10;23.10;99.90
11389;DHT22;5750;48.474;8.952;2022-10-16T15:29:38;23.00;99.90
11389;DHT22;5750;48.474;8.952;2022-10-16T15:32:05;22.90;99.90
11389;DHT22;5750;48.474;8.952;2022-10-16T15:34:32;22.90;99.90
11389;DHT22;5750;48.474;8.952;2022-10-16T15:36:58;22.80;99.90
11389;DHT22;5750;48.474;8.952;2022-10-16T15:39:28;22.80;99.90
11389;DHT22;5750;48.474;8.952;2022-10-16T15:41:55;22.70;99.90
11389;DHT22;5750;48.474;8.952;2022-10-16T15:44:21;22.60;99.90
11389;DHT22;5750;48.474;8.952;2022-10-16T15:46:49;22.50;99.90
11389;DHT22;5750;48.474;8.952;2022-10-16T15:49:16;22.50;99.90
11389;DHT22;5750;48.474;8.952;2022-10-16T15:51:42;22.30;99.90
11389;DHT22;5750;48.474;8.952;2022-10-16T15:54:09;22.20;99.90
11389;DHT22;5750;48.474;8.952;2022-10-16T15:56:36;22.10;99.90
11389;DHT22;5750;48.474;8.952;2022-10-16T15:59:03;22.10;99.90